sensor_id;sensor_type;location;lat;lon;timestamp;temperature;humidity
66962;HTU21D;53897;51.126;5.868;2023-04-25T00:01:32;21.85;45.38
66962;HTU21D;53897;51.126;5.868;2023-04-25T00:04:02;21.83;45.37
66962;HTU21D;53897;51.126;5.868;2023-04-25T00:06:29;21.83;45.35
66962;HTU21D;53897;51.126;5.868;2023-04-25T00:08:56;21.83;45.32
66962;HTU21D;53897;51.126;5.868;2023-04-25T00:11:22;21.82;45.28
66962;HTU21D;53897;51.126;5.868;2023-04-25T00:13:48;21.80;45.26
66962;HTU21D;53897;51.126;5.868;2023-04-25T00:16:16;21.80;45.24
66962;HTU21D;53897;51.126;5.868;2023-04-25T00:18:42;21.80;45.23
66962;HTU21D;53897;51.126;5.868;2023-04-25T00:21:08;21.79;45.21
66962;HTU21D;53897;51.126;5.868;2023-04-25T00:23:34;21.78;45.17
66962;HTU21D;53897;51.126;5.868;2023-04-25T00:26:02;21.77;45.16
66962;HTU21D;53897;51.126;5.868;2023-04-25T00:28:28;21.76;45.13
66962;HTU21D;53897;51.126;5.868;2023-04-25T00:30:54;21.76;45.11
66962;HTU21D;53897;51.126;5.868;2023-04-25T00:33:20;21.75;45.07
66962;HTU21D;53897;51.126;5.868;2023-04-25T00:35:46;21.74;45.06
66962;HTU21D;53897;51.126;5.868;2023-04-25T00:38:12;21.74;45.04
66962;HTU21D;53897;51.126;5.868;2023-04-25T00:40:38;21.73;45.00
66962;HTU21D;53897;51.126;5.868;2023-04-25T00:43:04;21.73;44.98
66962;HTU21D;53897;51.126;5.868;2023-04-25T00:45:30;21.73;44.95
66962;HTU21D;53897;51.126;5.868;2023-04-25T00:47:56;21.70;44.93
66962;HTU21D;53897;51.126;5.868;2023-04-25T00:50:22;21.70;44.92
66962;HTU21D;53897;51.126;5.868;2023-04-25T00:52:48;21.70;44.88
66962;HTU21D;53897;51.126;5.868;2023-04-25T00:55:14;21.69;44.87
66962;HTU21D;53897;51.126;5.868;2023-04-25T00:57:42;21.68;44.83
66962;HTU21D;53897;51.126;5.868;2023-04-25T01:00:09;21.67;44.81
66962;HTU21D;53897;51.126;5.868;2023-04-25T01:02:37;21.67;44.79
66962;HTU21D;53897;51.126;5.868;2023-04-25T01:05:03;21.67;44.77
66962;HTU21D;53897;51.126;5.868;2023-04-25T01:07:29;21.66;44.74
66962;HTU21D;53897;51.126;5.868;2023-04-25T01:09:56;21.65;44.70
66962;HTU21D;53897;51.126;5.868;2023-04-25T01:12:23;21.64;44.70
66962;HTU21D;53897;51.126;5.868;2023-04-25T01:14:49;21.63;44.72
66962;HTU21D;53897;51.126;5.868;2023-04-25T01:17:14;21.64;44.70
66962;HTU21D;53897;51.126;5.868;2023-04-25T01:19:41;21.62;44.68
66962;HTU21D;53897;51.126;5.868;2023-04-25T01:22:07;21.62;44.64
66962;HTU21D;53897;51.126;5.868;2023-04-25T01:24:37;21.61;44.64
66962;HTU21D;53897;51.126;5.868;2023-04-25T01:27:04;21.60;44.61
66962;HTU21D;53897;51.126;5.868;2023-04-25T01:29:31;21.59;44.61
66962;HTU21D;53897;51.126;5.868;2023-04-25T01:31:59;21.59;44.58
66962;HTU21D;53897;51.126;5.868;2023-04-25T01:34:24;21.59;44.56
66962;HTU21D;53897;51.126;5.868;2023-04-25T01:36:51;21.58;44.54
66962;HTU21D;53897;51.126;5.868;2023-04-25T01:39:18;21.57;44.51
66962;HTU21D;53897;51.126;5.868;2023-04-25T01:41:45;21.57;44.50
66962;HTU21D;53897;51.126;5.868;2023-04-25T01:44:11;21.54;44.49
66962;HTU21D;53897;51.126;5.868;2023-04-25T01:46:37;21.54;44.46
66962;HTU21D;53897;51.126;5.868;2023-04-25T01:49:04;21.53;44.45
66962;HTU21D;53897;51.126;5.868;2023-04-25T01:51:30;21.52;44.42
66962;HTU21D;53897;51.126;5.868;2023-04-25T01:53:58;21.52;44.39
66962;HTU21D;53897;51.126;5.868;2023-04-25T01:56:24;21.51;44.34
66962;HTU21D;53897;51.126;5.868;2023-04-25T01:58:51;21.50;44.34
66962;HTU21D;53897;51.126;5.868;2023-04-25T02:01:32;21.49;44.32
66962;HTU21D;53897;51.126;5.868;2023-04-25T02:04:12;21.49;44.30
66962;HTU21D;53897;51.126;5.868;2023-04-25T02:06:39;21.48;44.29
66962;HTU21D;53897;51.126;5.868;2023-04-25T02:09:06;21.46;44.28
66962;HTU21D;53897;51.126;5.868;2023-04-25T02:11:32;21.46;44.29
66962;HTU21D;53897;51.126;5.868;2023-04-25T02:14:16;21.44;44.25
66962;HTU21D;53897;51.126;5.868;2023-04-25T02:16:51;21.44;44.25
66962;HTU21D;53897;51.126;5.868;2023-04-25T02:19:17;21.43;44.24
66962;HTU21D;53897;51.126;5.868;2023-04-25T02:21:43;21.43;44.22
66962;HTU21D;53897;51.126;5.868;2023-04-25T02:24:10;21.42;44.20
66962;HTU21D;53897;51.126;5.868;2023-04-25T02:26:36;21.40;44.20
66962;HTU21D;53897;51.126;5.868;2023-04-25T02:29:02;21.40;44.22
66962;HTU21D;53897;51.126;5.868;2023-04-25T02:31:27;21.39;44.20
66962;HTU21D;53897;51.126;5.868;2023-04-25T02:33:53;21.38;44.20
66962;HTU21D;53897;51.126;5.868;2023-04-25T02:36:19;21.38;44.13
66962;HTU21D;53897;51.126;5.868;2023-04-25T02:38:45;21.37;44.08
66962;HTU21D;53897;51.126;5.868;2023-04-25T02:41:10;21.36;44.03
66962;HTU21D;53897;51.126;5.868;2023-04-25T02:43:36;21.37;43.97
66962;HTU21D;53897;51.126;5.868;2023-04-25T02:46:03;21.34;43.95
66962;HTU21D;53897;51.126;5.868;2023-04-25T02:48:28;21.34;43.90
66962;HTU21D;53897;51.126;5.868;2023-04-25T02:50:54;21.33;43.87
66962;HTU21D;53897;51.126;5.868;2023-04-25T02:53:20;21.33;43.84
66962;HTU21D;53897;51.126;5.868;2023-04-25T02:55:49;21.31;43.80
66962;HTU21D;53897;51.126;5.868;2023-04-25T02:58:14;21.32;43.78
66962;HTU21D;53897;51.126;5.868;2023-04-25T03:00:47;21.31;43.73
66962;HTU21D;53897;51.126;5.868;2023-04-25T03:03:13;21.30;43.71
66962;HTU21D;53897;51.126;5.868;2023-04-25T03:05:39;21.30;43.69
66962;HTU21D;53897;51.126;5.868;2023-04-25T03:08:05;21.28;43.64
66962;HTU21D;53897;51.126;5.868;2023-04-25T03:10:32;21.27;43.62
66962;HTU21D;53897;51.126;5.868;2023-04-25T03:13:02;21.27;43.58
66962;HTU21D;53897;51.126;5.868;2023-04-25T03:15:28;21.25;43.56
66962;HTU21D;53897;51.126;5.868;2023-04-25T03:17:54;21.25;43.53
66962;HTU21D;53897;51.126;5.868;2023-04-25T03:20:19;21.25;43.51
66962;HTU21D;53897;51.126;5.868;2023-04-25T03:22:46;21.24;43.47
66962;HTU21D;53897;51.126;5.868;2023-04-25T03:25:12;21.23;43.46
66962;HTU21D;53897;51.126;5.868;2023-04-25T03:27:37;21.22;43.43
66962;HTU21D;53897;51.126;5.868;2023-04-25T03:30:03;21.21;43.43
66962;HTU21D;53897;51.126;5.868;2023-04-25T03:32:30;21.21;43.40
66962;HTU21D;53897;51.126;5.868;2023-04-25T03:34:56;21.21;43.39
66962;HTU21D;53897;51.126;5.868;2023-04-25T03:37:24;21.19;43.39
66962;HTU21D;53897;51.126;5.868;2023-04-25T03:39:50;21.20;43.33
66962;HTU21D;53897;51.126;5.868;2023-04-25T03:42:16;21.19;43.31
66962;HTU21D;53897;51.126;5.868;2023-04-25T03:44:43;21.18;43.30
66962;HTU21D;53897;51.126;5.868;2023-04-25T03:47:09;21.19;43.24
66962;HTU21D;53897;51.126;5.868;2023-04-25T03:49:35;21.18;43.27
66962;HTU21D;53897;51.126;5.868;2023-04-25T03:52:03;21.17;43.22
66962;HTU21D;53897;51.126;5.868;2023-04-25T03:54:34;21.16;43.20
66962;HTU21D;53897;51.126;5.868;2023-04-25T03:57:18;21.16;43.11
66962;HTU21D;53897;51.126;5.868;2023-04-25T03:59:43;21.14;43.09
66962;HTU21D;53897;51.126;5.868;2023-04-25T04:02:12;21.14;43.10
66962;HTU21D;53897;51.126;5.868;2023-04-25T04:04:39;21.11;43.11
66962;HTU21D;53897;51.126;5.868;2023-04-25T04:07:05;21.13;43.06
66962;HTU21D;53897;51.126;5.868;2023-04-25T04:09:34;21.10;43.06
66962;HTU21D;53897;51.126;5.868;2023-04-25T04:12:04;21.10;43.05
66962;HTU21D;53897;51.126;5.868;2023-04-25T04:14:31;21.10;43.03
66962;HTU21D;53897;51.126;5.868;2023-04-25T04:16:57;21.08;43.03
66962;HTU21D;53897;51.126;5.868;2023-04-25T04:19:23;21.08;43.02
66962;HTU21D;53897;51.126;5.868;2023-04-25T04:22:03;21.06;43.00
66962;HTU21D;53897;51.126;5.868;2023-04-25T04:24:29;21.08;42.97
66962;HTU21D;53897;51.126;5.868;2023-04-25T04:27:00;21.07;42.97
66962;HTU21D;53897;51.126;5.868;2023-04-25T04:29:35;21.06;43.22
66962;HTU21D;53897;51.126;5.868;2023-04-25T04:32:10;21.05;43.26
66962;HTU21D;53897;51.126;5.868;2023-04-25T04:34:36;21.03;43.54
66962;HTU21D;53897;51.126;5.868;2023-04-25T04:37:03;21.01;43.73
66962;HTU21D;53897;51.126;5.868;2023-04-25T04:39:28;21.00;43.80
66962;HTU21D;53897;51.126;5.868;2023-04-25T04:42:03;20.99;43.87
66962;HTU21D;53897;51.126;5.868;2023-04-25T04:44:47;20.99;43.93
66962;HTU21D;53897;51.126;5.868;2023-04-25T04:47:33;20.98;43.98
66962;HTU21D;53897;51.126;5.868;2023-04-25T04:50:22;20.98;44.00
66962;HTU21D;53897;51.126;5.868;2023-04-25T04:53:09;20.95;44.03
66962;HTU21D;53897;51.126;5.868;2023-04-25T04:55:45;20.95;44.09
66962;HTU21D;53897;51.126;5.868;2023-04-25T04:58:36;20.95;44.12
66962;HTU21D;53897;51.126;5.868;2023-04-25T05:01:11;20.96;44.24
66962;HTU21D;53897;51.126;5.868;2023-04-25T05:03:56;20.99;44.42
66962;HTU21D;53897;51.126;5.868;2023-04-25T05:06:54;21.00;44.51
66962;HTU21D;53897;51.126;5.868;2023-04-25T05:09:23;21.04;44.51
66962;HTU21D;53897;51.126;5.868;2023-04-25T05:12:06;21.05;44.53
66962;HTU21D;53897;51.126;5.868;2023-04-25T05:14:50;21.09;44.50
66962;HTU21D;53897;51.126;5.868;2023-04-25T05:17:33;21.11;44.48
66962;HTU21D;53897;51.126;5.868;2023-04-25T05:20:09;21.15;44.45
66962;HTU21D;53897;51.126;5.868;2023-04-25T05:22:53;21.18;44.45
66962;HTU21D;53897;51.126;5.868;2023-04-25T05:25:35;21.18;44.55
66962;HTU21D;53897;51.126;5.868;2023-04-25T05:28:07;21.17;44.62
66962;HTU21D;53897;51.126;5.868;2023-04-25T05:30:57;21.18;44.70
66962;HTU21D;53897;51.126;5.868;2023-04-25T05:33:43;21.20;44.83
66962;HTU21D;53897;51.126;5.868;2023-04-25T05:36:08;21.23;44.90
66962;HTU21D;53897;51.126;5.868;2023-04-25T05:38:34;21.27;44.98
66962;HTU21D;53897;51.126;5.868;2023-04-25T05:41:18;21.31;45.09
66962;HTU21D;53897;51.126;5.868;2023-04-25T05:43:54;21.36;45.15
66962;HTU21D;53897;51.126;5.868;2023-04-25T05:46:48;21.43;45.16
66962;HTU21D;53897;51.126;5.868;2023-04-25T05:49:30;21.46;45.08
66962;HTU21D;53897;51.126;5.868;2023-04-25T05:52:02;21.52;45.08
66962;HTU21D;53897;51.126;5.868;2023-04-25T05:54:47;21.58;45.04
66962;HTU21D;53897;51.126;5.868;2023-04-25T05:57:23;21.62;44.96
66962;HTU21D;53897;51.126;5.868;2023-04-25T05:59:49;21.68;44.92
66962;HTU21D;53897;51.126;5.868;2023-04-25T06:02:16;21.70;44.86
66962;HTU21D;53897;51.126;5.868;2023-04-25T06:04:42;21.76;44.86
66962;HTU21D;53897;51.126;5.868;2023-04-25T06:07:07;21.80;44.83
66962;HTU21D;53897;51.126;5.868;2023-04-25T06:09:34;21.82;44.81
66962;HTU21D;53897;51.126;5.868;2023-04-25T06:12:00;21.87;44.77
66962;HTU21D;53897;51.126;5.868;2023-04-25T06:14:28;21.90;44.71
66962;HTU21D;53897;51.126;5.868;2023-04-25T06:16:54;21.93;44.66
66962;HTU21D;53897;51.126;5.868;2023-04-25T06:19:19;21.95;44.74
66962;HTU21D;53897;51.126;5.868;2023-04-25T06:21:45;21.99;44.73
66962;HTU21D;53897;51.126;5.868;2023-04-25T06:24:11;22.02;44.74
66962;HTU21D;53897;51.126;5.868;2023-04-25T06:26:37;22.03;44.82
66962;HTU21D;53897;51.126;5.868;2023-04-25T06:29:03;22.06;44.83
66962;HTU21D;53897;51.126;5.868;2023-04-25T06:31:29;22.08;44.78
66962;HTU21D;53897;51.126;5.868;2023-04-25T06:33:58;22.10;44.67
66962;HTU21D;53897;51.126;5.868;2023-04-25T06:36:25;22.12;44.67
66962;HTU21D;53897;51.126;5.868;2023-04-25T06:38:58;22.14;44.68
66962;HTU21D;53897;51.126;5.868;2023-04-25T06:41:25;22.17;44.71
66962;HTU21D;53897;51.126;5.868;2023-04-25T06:43:52;22.19;44.69
66962;HTU21D;53897;51.126;5.868;2023-04-25T06:46:29;22.22;44.65
66962;HTU21D;53897;51.126;5.868;2023-04-25T06:48:57;22.23;44.61
66962;HTU21D;53897;51.126;5.868;2023-04-25T06:51:23;22.25;44.60
66962;HTU21D;53897;51.126;5.868;2023-04-25T06:53:50;22.26;44.56
66962;HTU21D;53897;51.126;5.868;2023-04-25T06:56:25;22.28;44.54
66962;HTU21D;53897;51.126;5.868;2023-04-25T06:59:03;22.31;44.47
66962;HTU21D;53897;51.126;5.868;2023-04-25T07:01:31;22.31;44.46
66962;HTU21D;53897;51.126;5.868;2023-04-25T07:03:59;22.34;44.47
66962;HTU21D;53897;51.126;5.868;2023-04-25T07:06:25;22.33;44.45
66962;HTU21D;53897;51.126;5.868;2023-04-25T07:08:52;22.32;44.51
66962;HTU21D;53897;51.126;5.868;2023-04-25T07:11:18;22.33;44.58
66962;HTU21D;53897;51.126;5.868;2023-04-25T07:13:44;22.33;44.61
66962;HTU21D;53897;51.126;5.868;2023-04-25T07:16:10;22.33;44.58
66962;HTU21D;53897;51.126;5.868;2023-04-25T07:18:36;22.32;44.61
66962;HTU21D;53897;51.126;5.868;2023-04-25T07:21:03;22.28;44.65
66962;HTU21D;53897;51.126;5.868;2023-04-25T07:23:31;22.32;44.70
66962;HTU21D;53897;51.126;5.868;2023-04-25T07:25:59;22.33;44.58
66962;HTU21D;53897;51.126;5.868;2023-04-25T07:28:26;22.35;44.57
66962;HTU21D;53897;51.126;5.868;2023-04-25T07:30:52;22.36;44.55
66962;HTU21D;53897;51.126;5.868;2023-04-25T07:33:18;22.38;44.54
66962;HTU21D;53897;51.126;5.868;2023-04-25T07:35:45;22.40;44.39
66962;HTU21D;53897;51.126;5.868;2023-04-25T07:38:12;22.41;44.40
66962;HTU21D;53897;51.126;5.868;2023-04-25T07:40:38;22.41;44.26
66962;HTU21D;53897;51.126;5.868;2023-04-25T07:43:07;22.41;44.29
66962;HTU21D;53897;51.126;5.868;2023-04-25T07:45:44;22.40;44.22
66962;HTU21D;53897;51.126;5.868;2023-04-25T07:48:10;22.39;44.27
66962;HTU21D;53897;51.126;5.868;2023-04-25T07:50:37;22.40;44.26
66962;HTU21D;53897;51.126;5.868;2023-04-25T07:53:03;22.40;44.26
66962;HTU21D;53897;51.126;5.868;2023-04-25T07:55:37;22.42;44.24
66962;HTU21D;53897;51.126;5.868;2023-04-25T07:58:13;22.44;44.16
66962;HTU21D;53897;51.126;5.868;2023-04-25T08:00:42;22.47;44.12
66962;HTU21D;53897;51.126;5.868;2023-04-25T08:03:28;22.48;44.04
66962;HTU21D;53897;51.126;5.868;2023-04-25T08:05:55;22.50;44.00
66962;HTU21D;53897;51.126;5.868;2023-04-25T08:08:21;22.50;43.94
66962;HTU21D;53897;51.126;5.868;2023-04-25T08:10:47;22.52;43.91
66962;HTU21D;53897;51.126;5.868;2023-04-25T08:13:15;22.53;43.85
66962;HTU21D;53897;51.126;5.868;2023-04-25T08:15:41;22.54;43.79
66962;HTU21D;53897;51.126;5.868;2023-04-25T08:18:07;22.53;43.76
66962;HTU21D;53897;51.126;5.868;2023-04-25T08:20:33;22.55;43.73
66962;HTU21D;53897;51.126;5.868;2023-04-25T08:23:01;22.57;43.69
66962;HTU21D;53897;51.126;5.868;2023-04-25T08:25:56;22.57;43.65
66962;HTU21D;53897;51.126;5.868;2023-04-25T08:28:25;22.58;43.59
66962;HTU21D;53897;51.126;5.868;2023-04-25T08:30:51;22.58;43.56
66962;HTU21D;53897;51.126;5.868;2023-04-25T08:33:18;22.58;43.49
66962;HTU21D;53897;51.126;5.868;2023-04-25T08:35:59;22.62;43.48
66962;HTU21D;53897;51.126;5.868;2023-04-25T08:38:26;22.62;43.45
66962;HTU21D;53897;51.126;5.868;2023-04-25T08:40:54;22.62;43.37
66962;HTU21D;53897;51.126;5.868;2023-04-25T08:43:21;22.63;43.41
66962;HTU21D;53897;51.126;5.868;2023-04-25T08:45:48;22.62;43.51
66962;HTU21D;53897;51.126;5.868;2023-04-25T08:48:28;22.64;43.67
66962;HTU21D;53897;51.126;5.868;2023-04-25T08:50:57;22.63;43.71
66962;HTU21D;53897;51.126;5.868;2023-04-25T08:53:30;22.63;43.68
66962;HTU21D;53897;51.126;5.868;2023-04-25T08:56:00;22.64;43.70
66962;HTU21D;53897;51.126;5.868;2023-04-25T08:58:30;22.66;43.71
66962;HTU21D;53897;51.126;5.868;2023-04-25T09:00:56;22.66;43.69
66962;HTU21D;53897;51.126;5.868;2023-04-25T09:03:25;22.67;43.66
66962;HTU21D;53897;51.126;5.868;2023-04-25T09:05:52;22.67;43.65
66962;HTU21D;53897;51.126;5.868;2023-04-25T09:08:20;22.69;43.64
66962;HTU21D;53897;51.126;5.868;2023-04-25T09:10:46;22.69;43.62
66962;HTU21D;53897;51.126;5.868;2023-04-25T09:13:20;22.69;43.57
66962;HTU21D;53897;51.126;5.868;2023-04-25T09:16:07;22.70;43.52
66962;HTU21D;53897;51.126;5.868;2023-04-25T09:18:59;22.70;43.50
66962;HTU21D;53897;51.126;5.868;2023-04-25T09:21:27;22.71;43.45
66962;HTU21D;53897;51.126;5.868;2023-04-25T09:23:53;22.73;43.41
66962;HTU21D;53897;51.126;5.868;2023-04-25T09:26:20;22.73;43.36
66962;HTU21D;53897;51.126;5.868;2023-04-25T09:28:46;22.73;43.35
66962;HTU21D;53897;51.126;5.868;2023-04-25T09:31:22;22.75;43.35
66962;HTU21D;53897;51.126;5.868;2023-04-25T09:34:01;22.73;43.29
66962;HTU21D;53897;51.126;5.868;2023-04-25T09:36:28;22.75;43.25
66962;HTU21D;53897;51.126;5.868;2023-04-25T09:39:02;22.73;43.23
66962;HTU21D;53897;51.126;5.868;2023-04-25T09:41:37;22.75;43.26
66962;HTU21D;53897;51.126;5.868;2023-04-25T09:44:04;22.75;43.26
66962;HTU21D;53897;51.126;5.868;2023-04-25T09:46:41;22.76;43.24
66962;HTU21D;53897;51.126;5.868;2023-04-25T09:49:14;22.77;43.20
66962;HTU21D;53897;51.126;5.868;2023-04-25T09:51:56;22.78;43.18
66962;HTU21D;53897;51.126;5.868;2023-04-25T09:54:25;22.77;43.19
66962;HTU21D;53897;51.126;5.868;2023-04-25T09:57:17;22.79;43.13
66962;HTU21D;53897;51.126;5.868;2023-04-25T09:59:49;22.78;43.12
66962;HTU21D;53897;51.126;5.868;2023-04-25T10:02:18;22.79;43.10
66962;HTU21D;53897;51.126;5.868;2023-04-25T10:04:52;22.77;43.12
66962;HTU21D;53897;51.126;5.868;2023-04-25T10:07:27;22.78;43.12
66962;HTU21D;53897;51.126;5.868;2023-04-25T10:09:59;22.79;43.10
66962;HTU21D;53897;51.126;5.868;2023-04-25T10:12:27;22.79;43.07
66962;HTU21D;53897;51.126;5.868;2023-04-25T10:14:54;22.80;43.09
66962;HTU21D;53897;51.126;5.868;2023-04-25T10:17:20;22.78;43.11
66962;HTU21D;53897;51.126;5.868;2023-04-25T10:19:47;22.80;43.23
66962;HTU21D;53897;51.126;5.868;2023-04-25T10:22:14;22.81;43.31
66962;HTU21D;53897;51.126;5.868;2023-04-25T10:24:43;22.82;43.29
66962;HTU21D;53897;51.126;5.868;2023-04-25T10:27:12;22.80;43.30
66962;HTU21D;53897;51.126;5.868;2023-04-25T10:29:38;22.82;43.31
66962;HTU21D;53897;51.126;5.868;2023-04-25T10:32:07;22.82;43.28
66962;HTU21D;53897;51.126;5.868;2023-04-25T10:34:41;22.84;43.10
66962;HTU21D;53897;51.126;5.868;2023-04-25T10:37:11;22.82;43.13
66962;HTU21D;53897;51.126;5.868;2023-04-25T10:39:41;22.84;43.19
66962;HTU21D;53897;51.126;5.868;2023-04-25T10:42:07;22.84;43.13
66962;HTU21D;53897;51.126;5.868;2023-04-25T10:44:34;22.84;42.97
66962;HTU21D;53897;51.126;5.868;2023-04-25T10:47:02;22.85;42.91
66962;HTU21D;53897;51.126;5.868;2023-04-25T10:49:41;22.87;42.85
66962;HTU21D;53897;51.126;5.868;2023-04-25T10:54:56;22.90;42.86
66962;HTU21D;53897;51.126;5.868;2023-04-25T10:57:44;22.91;42.88
66962;HTU21D;53897;51.126;5.868;2023-04-25T11:00:17;22.92;42.89
66962;HTU21D;53897;51.126;5.868;2023-04-25T11:02:58;22.93;42.90
66962;HTU21D;53897;51.126;5.868;2023-04-25T11:05:33;22.95;42.92
66962;HTU21D;53897;51.126;5.868;2023-04-25T11:08:00;22.96;42.92
66962;HTU21D;53897;51.126;5.868;2023-04-25T11:10:27;22.96;42.93
66962;HTU21D;53897;51.126;5.868;2023-04-25T11:12:53;22.97;42.90
66962;HTU21D;53897;51.126;5.868;2023-04-25T11:15:19;22.96;42.83
66962;HTU21D;53897;51.126;5.868;2023-04-25T11:17:44;22.97;42.83
66962;HTU21D;53897;51.126;5.868;2023-04-25T11:20:12;22.97;42.80
66962;HTU21D;53897;51.126;5.868;2023-04-25T11:22:40;22.98;42.77
66962;HTU21D;53897;51.126;5.868;2023-04-25T11:25:10;22.99;42.80
66962;HTU21D;53897;51.126;5.868;2023-04-25T11:27:57;22.99;42.78
66962;HTU21D;53897;51.126;5.868;2023-04-25T11:30:24;23.00;42.77
66962;HTU21D;53897;51.126;5.868;2023-04-25T11:32:50;23.01;42.80
66962;HTU21D;53897;51.126;5.868;2023-04-25T11:35:18;23.00;42.78
66962;HTU21D;53897;51.126;5.868;2023-04-25T11:37:44;23.02;42.78
66962;HTU21D;53897;51.126;5.868;2023-04-25T11:40:12;23.01;42.77
66962;HTU21D;53897;51.126;5.868;2023-04-25T11:42:43;23.03;42.78
66962;HTU21D;53897;51.126;5.868;2023-04-25T11:45:10;23.02;42.79
66962;HTU21D;53897;51.126;5.868;2023-04-25T11:47:37;23.03;42.80
66962;HTU21D;53897;51.126;5.868;2023-04-25T11:50:04;23.03;42.77
66962;HTU21D;53897;51.126;5.868;2023-04-25T11:52:42;23.02;42.77
66962;HTU21D;53897;51.126;5.868;2023-04-25T11:55:13;23.07;42.75
66962;HTU21D;53897;51.126;5.868;2023-04-25T11:57:40;23.07;42.72
66962;HTU21D;53897;51.126;5.868;2023-04-25T12:00:18;23.07;42.75
66962;HTU21D;53897;51.126;5.868;2023-04-25T12:02:47;23.07;42.80
66962;HTU21D;53897;51.126;5.868;2023-04-25T12:05:14;23.07;42.84
66962;HTU21D;53897;51.126;5.868;2023-04-25T12:07:43;23.08;42.87
66962;HTU21D;53897;51.126;5.868;2023-04-25T12:10:12;23.09;42.88
66962;HTU21D;53897;51.126;5.868;2023-04-25T12:12:43;23.09;42.89
66962;HTU21D;53897;51.126;5.868;2023-04-25T12:15:14;23.09;42.89
66962;HTU21D;53897;51.126;5.868;2023-04-25T12:17:45;23.08;42.84
66962;HTU21D;53897;51.126;5.868;2023-04-25T12:20:16;23.08;42.83
66962;HTU21D;53897;51.126;5.868;2023-04-25T12:22:44;23.09;42.78
66962;HTU21D;53897;51.126;5.868;2023-04-25T12:25:11;23.10;42.74
66962;HTU21D;53897;51.126;5.868;2023-04-25T12:27:39;23.08;42.71
66962;HTU21D;53897;51.126;5.868;2023-04-25T12:30:10;23.11;42.68
66962;HTU21D;53897;51.126;5.868;2023-04-25T12:32:38;23.10;42.65
66962;HTU21D;53897;51.126;5.868;2023-04-25T12:35:05;23.09;42.65
66962;HTU21D;53897;51.126;5.868;2023-04-25T12:37:31;23.11;42.59
66962;HTU21D;53897;51.126;5.868;2023-04-25T12:39:57;23.11;42.56
66962;HTU21D;53897;51.126;5.868;2023-04-25T12:42:23;23.11;42.52
66962;HTU21D;53897;51.126;5.868;2023-04-25T12:44:48;23.11;42.55
66962;HTU21D;53897;51.126;5.868;2023-04-25T12:47:14;23.09;42.51
66962;HTU21D;53897;51.126;5.868;2023-04-25T12:49:40;23.10;42.51
66962;HTU21D;53897;51.126;5.868;2023-04-25T12:52:06;23.10;42.51
66962;HTU21D;53897;51.126;5.868;2023-04-25T12:54:32;23.11;42.47
66962;HTU21D;53897;51.126;5.868;2023-04-25T12:56:58;23.10;42.47
66962;HTU21D;53897;51.126;5.868;2023-04-25T12:59:24;23.10;42.50
66962;HTU21D;53897;51.126;5.868;2023-04-25T13:01:50;23.10;42.49
66962;HTU21D;53897;51.126;5.868;2023-04-25T13:04:15;23.10;42.47
66962;HTU21D;53897;51.126;5.868;2023-04-25T13:06:42;23.10;42.49
66962;HTU21D;53897;51.126;5.868;2023-04-25T13:09:07;23.10;42.50
66962;HTU21D;53897;51.126;5.868;2023-04-25T13:11:34;23.11;42.50
66962;HTU21D;53897;51.126;5.868;2023-04-25T13:14:00;23.10;42.48
66962;HTU21D;53897;51.126;5.868;2023-04-25T13:16:26;23.10;42.48
66962;HTU21D;53897;51.126;5.868;2023-04-25T13:18:52;23.10;42.48
66962;HTU21D;53897;51.126;5.868;2023-04-25T13:21:17;23.11;42.52
66962;HTU21D;53897;51.126;5.868;2023-04-25T13:23:43;23.11;42.48
66962;HTU21D;53897;51.126;5.868;2023-04-25T13:26:10;23.11;42.47
66962;HTU21D;53897;51.126;5.868;2023-04-25T13:28:35;23.12;42.49
66962;HTU21D;53897;51.126;5.868;2023-04-25T13:31:01;23.12;42.52
66962;HTU21D;53897;51.126;5.868;2023-04-25T13:33:27;23.11;42.53
66962;HTU21D;53897;51.126;5.868;2023-04-25T13:35:53;23.13;42.51
66962;HTU21D;53897;51.126;5.868;2023-04-25T13:38:22;23.13;42.51
66962;HTU21D;53897;51.126;5.868;2023-04-25T13:40:48;23.13;42.52
66962;HTU21D;53897;51.126;5.868;2023-04-25T13:43:14;23.14;42.49
66962;HTU21D;53897;51.126;5.868;2023-04-25T13:45:40;23.14;42.48
66962;HTU21D;53897;51.126;5.868;2023-04-25T13:48:06;23.15;42.53
66962;HTU21D;53897;51.126;5.868;2023-04-25T13:50:32;23.15;42.50
66962;HTU21D;53897;51.126;5.868;2023-04-25T13:52:58;23.15;42.43
66962;HTU21D;53897;51.126;5.868;2023-04-25T13:55:23;23.15;42.39
66962;HTU21D;53897;51.126;5.868;2023-04-25T13:57:49;23.16;42.32
66962;HTU21D;53897;51.126;5.868;2023-04-25T14:00:15;23.15;42.26
66962;HTU21D;53897;51.126;5.868;2023-04-25T14:02:41;23.17;42.29
66962;HTU21D;53897;51.126;5.868;2023-04-25T14:05:07;23.17;42.32
66962;HTU21D;53897;51.126;5.868;2023-04-25T14:07:44;23.18;42.48
66962;HTU21D;53897;51.126;5.868;2023-04-25T14:10:10;23.20;42.55
66962;HTU21D;53897;51.126;5.868;2023-04-25T14:12:35;23.18;42.63
66962;HTU21D;53897;51.126;5.868;2023-04-25T14:15:01;23.20;42.62
66962;HTU21D;53897;51.126;5.868;2023-04-25T14:17:27;23.21;42.68
66962;HTU21D;53897;51.126;5.868;2023-04-25T14:19:53;23.20;42.68
66962;HTU21D;53897;51.126;5.868;2023-04-25T14:22:19;23.22;42.70
66962;HTU21D;53897;51.126;5.868;2023-04-25T14:24:45;23.21;42.71
66962;HTU21D;53897;51.126;5.868;2023-04-25T14:27:10;23.22;42.71
66962;HTU21D;53897;51.126;5.868;2023-04-25T14:29:36;23.22;42.57
66962;HTU21D;53897;51.126;5.868;2023-04-25T14:32:02;23.22;42.66
66962;HTU21D;53897;51.126;5.868;2023-04-25T14:34:28;23.22;42.67
66962;HTU21D;53897;51.126;5.868;2023-04-25T14:36:54;23.22;42.63
66962;HTU21D;53897;51.126;5.868;2023-04-25T14:39:19;23.22;42.32
66962;HTU21D;53897;51.126;5.868;2023-04-25T14:41:45;23.22;42.33
66962;HTU21D;53897;51.126;5.868;2023-04-25T14:44:11;23.22;42.36
66962;HTU21D;53897;51.126;5.868;2023-04-25T14:46:37;23.22;42.40
66962;HTU21D;53897;51.126;5.868;2023-04-25T14:49:04;23.21;42.40
66962;HTU21D;53897;51.126;5.868;2023-04-25T14:51:30;23.22;42.47
66962;HTU21D;53897;51.126;5.868;2023-04-25T14:53:56;23.22;42.50
66962;HTU21D;53897;51.126;5.868;2023-04-25T14:56:22;23.21;42.31
66962;HTU21D;53897;51.126;5.868;2023-04-25T14:58:48;23.20;42.20
66962;HTU21D;53897;51.126;5.868;2023-04-25T15:01:14;23.18;42.07
66962;HTU21D;53897;51.126;5.868;2023-04-25T15:03:40;23.20;42.03
66962;HTU21D;53897;51.126;5.868;2023-04-25T15:06:06;23.18;42.15
66962;HTU21D;53897;51.126;5.868;2023-04-25T15:08:32;23.18;42.28
66962;HTU21D;53897;51.126;5.868;2023-04-25T15:10:58;23.18;42.32
66962;HTU21D;53897;51.126;5.868;2023-04-25T15:13:25;23.20;42.26
66962;HTU21D;53897;51.126;5.868;2023-04-25T15:15:51;23.20;42.25
66962;HTU21D;53897;51.126;5.868;2023-04-25T15:18:22;23.18;42.25
66962;HTU21D;53897;51.126;5.868;2023-04-25T15:20:51;23.20;42.25
66962;HTU21D;53897;51.126;5.868;2023-04-25T15:23:18;23.22;42.18
66962;HTU21D;53897;51.126;5.868;2023-04-25T15:25:46;23.21;42.04
66962;HTU21D;53897;51.126;5.868;2023-04-25T15:28:11;23.21;42.03
66962;HTU21D;53897;51.126;5.868;2023-04-25T15:30:40;23.21;42.13